Apex, North Carolina
Current Conditions -  °F | °C
As of 8:51 AM on Tuesday 27 Jan 2015 (Local Time) from KRDU Reporting Station
Broken Clouds Broken Clouds  
Wind Chill: -2°   Ceiling: 4800
Heat Index:   Visibility: 10mi
Dew Point: -7°   Wind: 7mph
Humidity: 54%   Direction: 320°NW
Pressure: 29.82"   Gusts: NA
Location:  35.73°N, 78.84°W
Report Text: KRDU 271351Z 32006KT 10SM SCT032 BKN048 01/M07 A2982 RMK AO2 SLP100 T00111072
Loading
Personal Weather Stations






























Interactive Weather Map New forecast layout! Learn more

10-Day Weather Forecast

Advertisements
Track Severe Weather on mobile